Aviation Digital Data Service (ADDS)

Output produced by TAFs form (0146 UTC 01 November 2014)
found at http://aviationweather.gov/adds/tafs/
 
KAMA 312334Z 0100/0124 15014KT P6SM SCT300 
     FM011400 19023G32KT P6SM BKN300